sensor_id;sensor_type;location;lat;lon;timestamp;P1;durP1;ratioP1;P2;durP2;ratioP2
9240;SDS011;53485;49.326;9.738;2023-02-15T00:01:06;23.60;;;13.57;;
9240;SDS011;53485;49.326;9.738;2023-02-15T00:03:33;27.57;;;14.30;;
9240;SDS011;53485;49.326;9.738;2023-02-15T00:06:00;36.27;;;16.30;;
9240;SDS011;53485;49.326;9.738;2023-02-15T00:08:27;27.47;;;15.17;;
9240;SDS011;53485;49.326;9.738;2023-02-15T00:11:03;27.97;;;14.50;;
9240;SDS011;53485;49.326;9.738;2023-02-15T00:13:36;26.90;;;14.63;;
9240;SDS011;53485;49.326;9.738;2023-02-15T00:16:03;29.57;;;15.30;;
9240;SDS011;53485;49.326;9.738;2023-02-15T00:18:30;29.70;;;15.27;;
9240;SDS011;53485;49.326;9.738;2023-02-15T00:20:57;31.80;;;13.57;;
9240;SDS011;53485;49.326;9.738;2023-02-15T00:23:24;30.83;;;13.80;;
9240;SDS011;53485;49.326;9.738;2023-02-15T00:25:50;27.70;;;14.07;;
9240;SDS011;53485;49.326;9.738;2023-02-15T00:28:18;27.40;;;14.27;;
9240;SDS011;53485;49.326;9.738;2023-02-15T00:30:45;24.90;;;12.83;;
9240;SDS011;53485;49.326;9.738;2023-02-15T00:33:13;52.53;;;17.17;;
9240;SDS011;53485;49.326;9.738;2023-02-15T00:35:40;46.40;;;16.87;;
9240;SDS011;53485;49.326;9.738;2023-02-15T00:38:07;38.30;;;15.37;;
9240;SDS011;53485;49.326;9.738;2023-02-15T00:40:35;33.10;;;14.63;;
9240;SDS011;53485;49.326;9.738;2023-02-15T00:43:02;50.33;;;16.73;;
9240;SDS011;53485;49.326;9.738;2023-02-15T00:45:30;32.73;;;14.97;;
9240;SDS011;53485;49.326;9.738;2023-02-15T00:47:57;33.23;;;13.50;;
9240;SDS011;53485;49.326;9.738;2023-02-15T00:50:25;26.30;;;14.10;;
9240;SDS011;53485;49.326;9.738;2023-02-15T00:52:52;26.87;;;14.33;;
9240;SDS011;53485;49.326;9.738;2023-02-15T00:55:19;63.73;;;18.30;;
9240;SDS011;53485;49.326;9.738;2023-02-15T00:57:47;27.90;;;14.80;;
9240;SDS011;53485;49.326;9.738;2023-02-15T01:00:14;37.00;;;15.07;;
9240;SDS011;53485;49.326;9.738;2023-02-15T01:02:42;33.43;;;15.70;;
9240;SDS011;53485;49.326;9.738;2023-02-15T01:05:09;44.77;;;16.73;;
9240;SDS011;53485;49.326;9.738;2023-02-15T01:07:36;25.90;;;14.27;;
9240;SDS011;53485;49.326;9.738;2023-02-15T01:10:05;31.77;;;15.57;;
9240;SDS011;53485;49.326;9.738;2023-02-15T01:12:32;28.70;;;15.10;;
9240;SDS011;53485;49.326;9.738;2023-02-15T01:14:58;25.87;;;13.27;;
9240;SDS011;53485;49.326;9.738;2023-02-15T01:17:26;32.53;;;15.00;;
9240;SDS011;53485;49.326;9.738;2023-02-15T01:19:53;27.20;;;14.37;;
9240;SDS011;53485;49.326;9.738;2023-02-15T01:22:20;31.03;;;15.60;;
9240;SDS011;53485;49.326;9.738;2023-02-15T01:24:49;35.60;;;15.77;;
9240;SDS011;53485;49.326;9.738;2023-02-15T01:27:16;32.53;;;15.53;;
9240;SDS011;53485;49.326;9.738;2023-02-15T01:29:43;31.00;;;15.17;;
9240;SDS011;53485;49.326;9.738;2023-02-15T01:32:10;32.73;;;15.60;;
9240;SDS011;53485;49.326;9.738;2023-02-15T01:34:38;28.77;;;14.63;;
9240;SDS011;53485;49.326;9.738;2023-02-15T01:37:05;27.80;;;14.80;;
9240;SDS011;53485;49.326;9.738;2023-02-15T01:39:32;29.47;;;15.60;;
9240;SDS011;53485;49.326;9.738;2023-02-15T01:42:00;37.23;;;16.67;;
9240;SDS011;53485;49.326;9.738;2023-02-15T01:47:07;31.93;;;15.80;;
9240;SDS011;53485;49.326;9.738;2023-02-15T01:49:32;35.07;;;16.70;;
9240;SDS011;53485;49.326;9.738;2023-02-15T01:51:59;31.10;;;15.70;;
9240;SDS011;53485;49.326;9.738;2023-02-15T01:54:29;32.37;;;15.93;;
9240;SDS011;53485;49.326;9.738;2023-02-15T01:56:54;27.93;;;14.77;;
9240;SDS011;53485;49.326;9.738;2023-02-15T01:59:21;33.87;;;15.57;;
9240;SDS011;53485;49.326;9.738;2023-02-15T02:01:47;25.53;;;14.83;;
9240;SDS011;53485;49.326;9.738;2023-02-15T02:04:17;27.27;;;14.50;;
9240;SDS011;53485;49.326;9.738;2023-02-15T02:06:46;30.87;;;15.77;;
9240;SDS011;53485;49.326;9.738;2023-02-15T02:09:11;30.27;;;15.17;;
9240;SDS011;53485;49.326;9.738;2023-02-15T02:11:39;36.63;;;15.33;;
9240;SDS011;53485;49.326;9.738;2023-02-15T02:14:06;24.57;;;13.57;;
9240;SDS011;53485;49.326;9.738;2023-02-15T02:16:37;30.30;;;14.43;;
9240;SDS011;53485;49.326;9.738;2023-02-15T02:19:14;30.17;;;15.30;;
9240;SDS011;53485;49.326;9.738;2023-02-15T02:21:45;34.17;;;16.93;;
9240;SDS011;53485;49.326;9.738;2023-02-15T02:24:23;45.40;;;16.80;;
9240;SDS011;53485;49.326;9.738;2023-02-15T02:27:09;60.53;;;18.10;;
9240;SDS011;53485;49.326;9.738;2023-02-15T02:32:12;29.37;;;13.90;;
9240;SDS011;53485;49.326;9.738;2023-02-15T02:34:39;48.67;;;16.50;;
9240;SDS011;53485;49.326;9.738;2023-02-15T02:37:12;30.90;;;15.60;;
9240;SDS011;53485;49.326;9.738;2023-02-15T02:39:39;32.27;;;16.00;;
9240;SDS011;53485;49.326;9.738;2023-02-15T02:44:59;76.50;;;20.60;;
9240;SDS011;53485;49.326;9.738;2023-02-15T02:47:35;43.13;;;18.03;;
9240;SDS011;53485;49.326;9.738;2023-02-15T02:50:04;35.90;;;16.00;;
9240;SDS011;53485;49.326;9.738;2023-02-15T02:55:03;48.70;;;18.30;;
9240;SDS011;53485;49.326;9.738;2023-02-15T02:57:29;32.63;;;16.37;;
9240;SDS011;53485;49.326;9.738;2023-02-15T02:59:56;41.77;;;17.50;;
9240;SDS011;53485;49.326;9.738;2023-02-15T03:02:25;82.03;;;22.10;;
9240;SDS011;53485;49.326;9.738;2023-02-15T03:04:52;68.83;;;21.43;;
9240;SDS011;53485;49.326;9.738;2023-02-15T03:07:18;37.77;;;17.33;;
9240;SDS011;53485;49.326;9.738;2023-02-15T03:09:45;50.03;;;17.73;;
9240;SDS011;53485;49.326;9.738;2023-02-15T03:12:13;48.53;;;21.17;;
9240;SDS011;53485;49.326;9.738;2023-02-15T03:14:40;40.20;;;17.23;;
9240;SDS011;53485;49.326;9.738;2023-02-15T03:17:06;40.50;;;17.27;;
9240;SDS011;53485;49.326;9.738;2023-02-15T03:19:33;40.07;;;17.90;;
9240;SDS011;53485;49.326;9.738;2023-02-15T03:22:03;37.47;;;17.53;;
9240;SDS011;53485;49.326;9.738;2023-02-15T03:24:28;65.70;;;20.90;;
9240;SDS011;53485;49.326;9.738;2023-02-15T03:26:54;67.77;;;19.33;;
9240;SDS011;53485;49.326;9.738;2023-02-15T03:29:23;65.07;;;20.27;;
9240;SDS011;53485;49.326;9.738;2023-02-15T03:31:49;38.43;;;17.73;;
9240;SDS011;53485;49.326;9.738;2023-02-15T03:34:14;52.47;;;17.60;;
9240;SDS011;53485;49.326;9.738;2023-02-15T03:36:58;59.13;;;17.83;;
9240;SDS011;53485;49.326;9.738;2023-02-15T03:39:29;32.90;;;16.23;;
9240;SDS011;53485;49.326;9.738;2023-02-15T03:42:04;41.17;;;16.80;;
9240;SDS011;53485;49.326;9.738;2023-02-15T03:44:31;36.00;;;16.40;;
9240;SDS011;53485;49.326;9.738;2023-02-15T03:47:00;41.17;;;16.83;;
9240;SDS011;53485;49.326;9.738;2023-02-15T03:49:32;40.80;;;16.23;;
9240;SDS011;53485;49.326;9.738;2023-02-15T03:52:06;43.37;;;17.03;;
9240;SDS011;53485;49.326;9.738;2023-02-15T03:54:33;51.73;;;15.03;;
9240;SDS011;53485;49.326;9.738;2023-02-15T03:57:05;31.30;;;14.87;;
9240;SDS011;53485;49.326;9.738;2023-02-15T03:59:37;30.80;;;15.50;;
9240;SDS011;53485;49.326;9.738;2023-02-15T04:04:46;26.80;;;14.13;;
9240;SDS011;53485;49.326;9.738;2023-02-15T04:07:12;29.23;;;14.90;;
9240;SDS011;53485;49.326;9.738;2023-02-15T04:09:39;37.97;;;16.53;;
9240;SDS011;53485;49.326;9.738;2023-02-15T04:12:12;53.87;;;18.23;;
9240;SDS011;53485;49.326;9.738;2023-02-15T04:14:40;31.97;;;15.07;;
9240;SDS011;53485;49.326;9.738;2023-02-15T04:17:13;29.63;;;15.37;;
9240;SDS011;53485;49.326;9.738;2023-02-15T04:19:40;93.57;;;24.47;;
9240;SDS011;53485;49.326;9.738;2023-02-15T04:22:13;47.73;;;14.97;;
9240;SDS011;53485;49.326;9.738;2023-02-15T04:24:46;42.37;;;14.77;;
9240;SDS011;53485;49.326;9.738;2023-02-15T04:27:19;60.17;;;17.17;;
9240;SDS011;53485;49.326;9.738;2023-02-15T04:29:47;30.03;;;14.83;;
9240;SDS011;53485;49.326;9.738;2023-02-15T04:32:14;75.73;;;23.00;;
9240;SDS011;53485;49.326;9.738;2023-02-15T04:34:41;55.70;;;21.87;;
9240;SDS011;53485;49.326;9.738;2023-02-15T04:37:09;33.40;;;15.83;;
9240;SDS011;53485;49.326;9.738;2023-02-15T04:39:36;94.63;;;21.53;;
9240;SDS011;53485;49.326;9.738;2023-02-15T04:42:03;33.17;;;15.70;;
9240;SDS011;53485;49.326;9.738;2023-02-15T04:44:31;35.33;;;15.33;;
9240;SDS011;53485;49.326;9.738;2023-02-15T04:46:58;94.97;;;20.53;;
9240;SDS011;53485;49.326;9.738;2023-02-15T04:49:25;87.23;;;20.43;;
9240;SDS011;53485;49.326;9.738;2023-02-15T04:51:53;35.80;;;16.60;;
9240;SDS011;53485;49.326;9.738;2023-02-15T04:54:20;28.23;;;14.27;;
9240;SDS011;53485;49.326;9.738;2023-02-15T04:56:47;69.53;;;19.80;;
9240;SDS011;53485;49.326;9.738;2023-02-15T04:59:15;34.57;;;17.00;;
9240;SDS011;53485;49.326;9.738;2023-02-15T05:01:42;46.17;;;17.13;;
9240;SDS011;53485;49.326;9.738;2023-02-15T05:04:09;76.97;;;18.87;;
9240;SDS011;53485;49.326;9.738;2023-02-15T05:06:36;31.37;;;15.30;;
9240;SDS011;53485;49.326;9.738;2023-02-15T05:09:04;37.67;;;15.20;;
9240;SDS011;53485;49.326;9.738;2023-02-15T05:11:31;36.50;;;15.30;;
9240;SDS011;53485;49.326;9.738;2023-02-15T05:13:58;32.40;;;15.17;;
9240;SDS011;53485;49.326;9.738;2023-02-15T05:16:25;49.10;;;15.87;;
9240;SDS011;53485;49.326;9.738;2023-02-15T05:18:53;30.67;;;15.70;;
9240;SDS011;53485;49.326;9.738;2023-02-15T05:21:20;51.30;;;17.27;;
9240;SDS011;53485;49.326;9.738;2023-02-15T05:23:47;62.83;;;19.00;;
9240;SDS011;53485;49.326;9.738;2023-02-15T05:26:17;72.03;;;19.33;;
9240;SDS011;53485;49.326;9.738;2023-02-15T05:28:47;43.67;;;17.70;;
9240;SDS011;53485;49.326;9.738;2023-02-15T05:31:17;52.80;;;21.57;;
9240;SDS011;53485;49.326;9.738;2023-02-15T05:33:42;33.67;;;17.30;;
9240;SDS011;53485;49.326;9.738;2023-02-15T05:36:10;35.50;;;16.23;;
9240;SDS011;53485;49.326;9.738;2023-02-15T05:38:36;33.90;;;15.73;;
9240;SDS011;53485;49.326;9.738;2023-02-15T05:41:04;37.00;;;16.50;;
9240;SDS011;53485;49.326;9.738;2023-02-15T05:43:30;65.60;;;16.93;;
9240;SDS011;53485;49.326;9.738;2023-02-15T05:45:57;35.67;;;16.23;;
9240;SDS011;53485;49.326;9.738;2023-02-15T05:48:24;29.30;;;14.00;;
9240;SDS011;53485;49.326;9.738;2023-02-15T05:53:27;78.40;;;19.67;;
9240;SDS011;53485;49.326;9.738;2023-02-15T05:55:53;38.77;;;16.03;;
9240;SDS011;53485;49.326;9.738;2023-02-15T05:58:20;27.57;;;15.30;;
9240;SDS011;53485;49.326;9.738;2023-02-15T06:00:47;67.17;;;18.90;;
9240;SDS011;53485;49.326;9.738;2023-02-15T06:03:15;42.93;;;17.33;;
9240;SDS011;53485;49.326;9.738;2023-02-15T06:05:42;46.00;;;18.40;;
9240;SDS011;53485;49.326;9.738;2023-02-15T06:08:10;44.47;;;15.70;;
9240;SDS011;53485;49.326;9.738;2023-02-15T06:10:37;52.30;;;16.67;;
9240;SDS011;53485;49.326;9.738;2023-02-15T06:13:04;29.60;;;14.77;;
9240;SDS011;53485;49.326;9.738;2023-02-15T06:15:31;37.27;;;15.80;;
9240;SDS011;53485;49.326;9.738;2023-02-15T06:17:59;43.33;;;17.90;;
9240;SDS011;53485;49.326;9.738;2023-02-15T06:20:26;60.87;;;19.33;;
9240;SDS011;53485;49.326;9.738;2023-02-15T06:22:53;82.60;;;20.53;;
9240;SDS011;53485;49.326;9.738;2023-02-15T06:25:21;45.63;;;17.07;;
9240;SDS011;53485;49.326;9.738;2023-02-15T06:27:48;40.23;;;15.57;;
9240;SDS011;53485;49.326;9.738;2023-02-15T06:30:15;69.07;;;19.00;;
9240;SDS011;53485;49.326;9.738;2023-02-15T06:32:43;38.73;;;17.23;;
9240;SDS011;53485;49.326;9.738;2023-02-15T06:35:10;61.63;;;18.63;;
9240;SDS011;53485;49.326;9.738;2023-02-15T06:37:38;40.77;;;17.63;;
9240;SDS011;53485;49.326;9.738;2023-02-15T06:40:05;35.10;;;15.47;;
9240;SDS011;53485;49.326;9.738;2023-02-15T06:42:33;64.37;;;16.70;;
9240;SDS011;53485;49.326;9.738;2023-02-15T06:45:00;33.77;;;13.80;;
9240;SDS011;53485;49.326;9.738;2023-02-15T06:47:28;32.13;;;15.47;;
9240;SDS011;53485;49.326;9.738;2023-02-15T06:49:55;45.07;;;16.60;;
9240;SDS011;53485;49.326;9.738;2023-02-15T06:52:22;53.33;;;22.53;;
9240;SDS011;53485;49.326;9.738;2023-02-15T06:54:49;65.73;;;18.87;;
9240;SDS011;53485;49.326;9.738;2023-02-15T06:57:16;32.47;;;15.93;;
9240;SDS011;53485;49.326;9.738;2023-02-15T06:59:43;25.97;;;13.90;;
9240;SDS011;53485;49.326;9.738;2023-02-15T07:02:11;39.17;;;15.07;;
9240;SDS011;53485;49.326;9.738;2023-02-15T07:04:38;25.13;;;14.40;;
9240;SDS011;53485;49.326;9.738;2023-02-15T07:07:07;26.00;;;14.80;;
9240;SDS011;53485;49.326;9.738;2023-02-15T07:09:31;23.97;;;13.57;;
9240;SDS011;53485;49.326;9.738;2023-02-15T07:11:59;34.70;;;15.47;;
9240;SDS011;53485;49.326;9.738;2023-02-15T07:14:32;37.37;;;15.20;;
9240;SDS011;53485;49.326;9.738;2023-02-15T07:16:59;53.00;;;25.30;;
9240;SDS011;53485;49.326;9.738;2023-02-15T07:19:27;53.60;;;25.43;;
9240;SDS011;53485;49.326;9.738;2023-02-15T07:21:54;52.37;;;21.83;;
9240;SDS011;53485;49.326;9.738;2023-02-15T07:24:22;50.63;;;23.87;;
9240;SDS011;53485;49.326;9.738;2023-02-15T07:26:49;52.93;;;25.47;;
9240;SDS011;53485;49.326;9.738;2023-02-15T07:29:16;37.73;;;18.67;;
9240;SDS011;53485;49.326;9.738;2023-02-15T07:31:44;62.33;;;16.90;;
9240;SDS011;53485;49.326;9.738;2023-02-15T07:34:11;34.13;;;17.43;;
9240;SDS011;53485;49.326;9.738;2023-02-15T07:36:38;40.33;;;17.03;;
9240;SDS011;53485;49.326;9.738;2023-02-15T07:39:06;33.57;;;17.20;;
9240;SDS011;53485;49.326;9.738;2023-02-15T07:41:33;38.30;;;16.90;;
9240;SDS011;53485;49.326;9.738;2023-02-15T07:44:00;35.03;;;17.03;;
9240;SDS011;53485;49.326;9.738;2023-02-15T07:46:28;43.30;;;19.07;;
9240;SDS011;53485;49.326;9.738;2023-02-15T07:48:55;38.83;;;17.87;;
9240;SDS011;53485;49.326;9.738;2023-02-15T07:51:23;42.37;;;18.63;;
9240;SDS011;53485;49.326;9.738;2023-02-15T07:53:50;36.13;;;17.23;;
9240;SDS011;53485;49.326;9.738;2023-02-15T07:56:17;34.77;;;17.40;;
9240;SDS011;53485;49.326;9.738;2023-02-15T07:58:44;24.27;;;13.80;;
9240;SDS011;53485;49.326;9.738;2023-02-15T08:01:18;40.73;;;15.63;;
9240;SDS011;53485;49.326;9.738;2023-02-15T08:03:44;32.93;;;15.70;;
9240;SDS011;53485;49.326;9.738;2023-02-15T08:06:11;25.30;;;14.00;;
9240;SDS011;53485;49.326;9.738;2023-02-15T08:08:39;28.57;;;14.90;;
9240;SDS011;53485;49.326;9.738;2023-02-15T08:11:07;31.77;;;16.23;;
9240;SDS011;53485;49.326;9.738;2023-02-15T08:13:38;21.17;;;12.43;;
9240;SDS011;53485;49.326;9.738;2023-02-15T08:16:05;42.23;;;15.67;;
9240;SDS011;53485;49.326;9.738;2023-02-15T08:18:33;27.90;;;14.93;;
9240;SDS011;53485;49.326;9.738;2023-02-15T08:21:00;26.50;;;14.90;;
9240;SDS011;53485;49.326;9.738;2023-02-15T08:23:27;27.60;;;15.20;;
9240;SDS011;53485;49.326;9.738;2023-02-15T08:25:54;22.20;;;12.83;;
9240;SDS011;53485;49.326;9.738;2023-02-15T08:28:22;25.10;;;13.50;;
9240;SDS011;53485;49.326;9.738;2023-02-15T08:30:49;21.03;;;11.87;;
9240;SDS011;53485;49.326;9.738;2023-02-15T08:33:17;18.80;;;11.67;;
9240;SDS011;53485;49.326;9.738;2023-02-15T08:35:44;21.67;;;13.10;;
9240;SDS011;53485;49.326;9.738;2023-02-15T08:38:11;23.73;;;12.60;;
9240;SDS011;53485;49.326;9.738;2023-02-15T08:40:39;32.97;;;13.57;;
9240;SDS011;53485;49.326;9.738;2023-02-15T08:43:06;24.07;;;14.03;;
9240;SDS011;53485;49.326;9.738;2023-02-15T08:45:34;46.20;;;24.33;;
9240;SDS011;53485;49.326;9.738;2023-02-15T08:48:01;35.37;;;19.30;;
9240;SDS011;53485;49.326;9.738;2023-02-15T08:50:28;21.13;;;13.50;;
9240;SDS011;53485;49.326;9.738;2023-02-15T08:52:55;28.37;;;16.67;;
9240;SDS011;53485;49.326;9.738;2023-02-15T08:55:23;22.00;;;11.70;;
9240;SDS011;53485;49.326;9.738;2023-02-15T08:57:50;21.40;;;12.70;;
9240;SDS011;53485;49.326;9.738;2023-02-15T09:00:18;20.87;;;11.80;;
9240;SDS011;53485;49.326;9.738;2023-02-15T09:02:46;21.50;;;12.17;;
9240;SDS011;53485;49.326;9.738;2023-02-15T09:05:13;17.90;;;11.60;;
9240;SDS011;53485;49.326;9.738;2023-02-15T09:07:40;23.63;;;11.83;;
9240;SDS011;53485;49.326;9.738;2023-02-15T09:10:07;21.50;;;11.90;;
9240;SDS011;53485;49.326;9.738;2023-02-15T09:12:35;17.23;;;11.43;;
9240;SDS011;53485;49.326;9.738;2023-02-15T09:15:03;21.97;;;12.70;;
9240;SDS011;53485;49.326;9.738;2023-02-15T09:17:31;19.97;;;12.70;;
9240;SDS011;53485;49.326;9.738;2023-02-15T09:19:58;18.87;;;12.30;;
9240;SDS011;53485;49.326;9.738;2023-02-15T09:22:26;23.53;;;12.60;;
9240;SDS011;53485;49.326;9.738;2023-02-15T09:24:53;26.03;;;14.47;;
9240;SDS011;53485;49.326;9.738;2023-02-15T09:27:20;17.77;;;12.43;;
9240;SDS011;53485;49.326;9.738;2023-02-15T09:29:48;18.53;;;12.10;;
9240;SDS011;53485;49.326;9.738;2023-02-15T09:32:15;20.87;;;12.83;;
9240;SDS011;53485;49.326;9.738;2023-02-15T09:34:42;24.07;;;12.47;;
9240;SDS011;53485;49.326;9.738;2023-02-15T09:37:10;19.03;;;11.77;;
9240;SDS011;53485;49.326;9.738;2023-02-15T09:39:37;19.53;;;12.90;;
9240;SDS011;53485;49.326;9.738;2023-02-15T09:47:42;23.30;;;14.27;;
9240;SDS011;53485;49.326;9.738;2023-02-15T09:51:21;21.57;;;14.90;;
9240;SDS011;53485;49.326;9.738;2023-02-15T09:58:27;17.37;;;11.93;;
9240;SDS011;53485;49.326;9.738;2023-02-15T10:01:17;17.73;;;12.03;;
9240;SDS011;53485;49.326;9.738;2023-02-15T10:07:01;14.20;;;10.80;;
9240;SDS011;53485;49.326;9.738;2023-02-15T10:09:35;17.40;;;11.83;;
9240;SDS011;53485;49.326;9.738;2023-02-15T10:12:03;18.70;;;12.17;;
9240;SDS011;53485;49.326;9.738;2023-02-15T10:15:53;14.97;;;10.00;;
9240;SDS011;53485;49.326;9.738;2023-02-15T10:19:00;11.13;;;9.53;;
9240;SDS011;53485;49.326;9.738;2023-02-15T10:20:41;14.57;;;11.00;;
9240;SDS011;53485;49.326;9.738;2023-02-15T10:23:16;14.57;;;11.00;;
9240;SDS011;53485;49.326;9.738;2023-02-15T10:25:46;19.93;;;10.50;;
9240;SDS011;53485;49.326;9.738;2023-02-15T10:28:29;13.63;;;10.50;;
9240;SDS011;53485;49.326;9.738;2023-02-15T10:30:56;13.27;;;10.73;;
9240;SDS011;53485;49.326;9.738;2023-02-15T10:38:53;9.63;;;8.63;;
9240;SDS011;53485;49.326;9.738;2023-02-15T10:44:26;9.87;;;8.93;;
9240;SDS011;53485;49.326;9.738;2023-02-15T10:47:11;11.10;;;10.03;;
9240;SDS011;53485;49.326;9.738;2023-02-15T10:50:52;10.97;;;9.90;;
9240;SDS011;53485;49.326;9.738;2023-02-15T10:55:56;14.60;;;10.20;;
9240;SDS011;53485;49.326;9.738;2023-02-15T10:58:26;11.23;;;10.10;;
9240;SDS011;53485;49.326;9.738;2023-02-15T11:00:55;12.30;;;10.03;;
9240;SDS011;53485;49.326;9.738;2023-02-15T11:06:23;12.20;;;10.97;;
9240;SDS011;53485;49.326;9.738;2023-02-15T11:08:52;13.47;;;12.07;;
9240;SDS011;53485;49.326;9.738;2023-02-15T11:11:21;14.47;;;11.70;;
9240;SDS011;53485;49.326;9.738;2023-02-15T11:13:48;12.53;;;11.23;;
9240;SDS011;53485;49.326;9.738;2023-02-15T11:16:14;14.27;;;11.13;;
9240;SDS011;53485;49.326;9.738;2023-02-15T11:18:42;22.27;;;12.33;;
9240;SDS011;53485;49.326;9.738;2023-02-15T11:21:24;16.67;;;12.70;;
9240;SDS011;53485;49.326;9.738;2023-02-15T11:23:50;13.57;;;12.17;;
9240;SDS011;53485;49.326;9.738;2023-02-15T11:26:27;13.43;;;12.13;;
9240;SDS011;53485;49.326;9.738;2023-02-15T11:28:57;14.37;;;12.87;;
9240;SDS011;53485;49.326;9.738;2023-02-15T11:31:25;14.73;;;12.67;;
9240;SDS011;53485;49.326;9.738;2023-02-15T11:33:53;12.93;;;11.73;;
9240;SDS011;53485;49.326;9.738;2023-02-15T11:36:22;13.93;;;12.30;;
9240;SDS011;53485;49.326;9.738;2023-02-15T11:38:49;14.37;;;12.80;;
9240;SDS011;53485;49.326;9.738;2023-02-15T11:41:17;13.90;;;12.40;;
9240;SDS011;53485;49.326;9.738;2023-02-15T11:43:43;13.93;;;12.53;;
9240;SDS011;53485;49.326;9.738;2023-02-15T11:46:11;14.90;;;13.27;;
9240;SDS011;53485;49.326;9.738;2023-02-15T11:48:37;13.57;;;11.47;;
9240;SDS011;53485;49.326;9.738;2023-02-15T11:51:04;14.47;;;12.60;;
9240;SDS011;53485;49.326;9.738;2023-02-15T11:53:32;14.63;;;12.87;;
9240;SDS011;53485;49.326;9.738;2023-02-15T11:55:58;15.80;;;12.33;;
9240;SDS011;53485;49.326;9.738;2023-02-15T11:58:30;13.73;;;12.10;;
9240;SDS011;53485;49.326;9.738;2023-02-15T12:01:03;14.60;;;12.57;;
9240;SDS011;53485;49.326;9.738;2023-02-15T12:03:51;14.33;;;11.80;;
9240;SDS011;53485;49.326;9.738;2023-02-15T12:06:31;15.03;;;11.00;;
9240;SDS011;53485;49.326;9.738;2023-02-15T12:09:34;14.00;;;12.57;;
9240;SDS011;53485;49.326;9.738;2023-02-15T12:11:48;15.20;;;12.50;;
9240;SDS011;53485;49.326;9.738;2023-02-15T12:14:15;13.43;;;11.83;;
9240;SDS011;53485;49.326;9.738;2023-02-15T12:16:47;16.00;;;12.77;;
9240;SDS011;53485;49.326;9.738;2023-02-15T12:19:24;14.67;;;12.73;;
9240;SDS011;53485;49.326;9.738;2023-02-15T12:21:52;15.17;;;13.30;;
9240;SDS011;53485;49.326;9.738;2023-02-15T12:24:21;15.00;;;12.90;;
9240;SDS011;53485;49.326;9.738;2023-02-15T12:29:22;16.97;;;13.07;;
9240;SDS011;53485;49.326;9.738;2023-02-15T12:31:49;18.20;;;13.60;;
9240;SDS011;53485;49.326;9.738;2023-02-15T12:34:21;15.87;;;12.37;;
9240;SDS011;53485;49.326;9.738;2023-02-15T12:36:48;15.90;;;13.37;;
9240;SDS011;53485;49.326;9.738;2023-02-15T12:39:25;17.70;;;13.23;;
9240;SDS011;53485;49.326;9.738;2023-02-15T12:42:02;14.37;;;12.13;;
9240;SDS011;53485;49.326;9.738;2023-02-15T12:44:32;18.40;;;13.80;;
9240;SDS011;53485;49.326;9.738;2023-02-15T12:47:00;14.90;;;11.87;;
9240;SDS011;53485;49.326;9.738;2023-02-15T12:49:27;15.10;;;12.63;;
9240;SDS011;53485;49.326;9.738;2023-02-15T12:51:54;15.70;;;13.93;;
9240;SDS011;53485;49.326;9.738;2023-02-15T12:59:47;13.37;;;11.67;;
9240;SDS011;53485;49.326;9.738;2023-02-15T13:02:15;13.60;;;11.47;;
9240;SDS011;53485;49.326;9.738;2023-02-15T13:04:38;14.20;;;11.97;;
9240;SDS011;53485;49.326;9.738;2023-02-15T13:07:05;14.47;;;12.20;;
9240;SDS011;53485;49.326;9.738;2023-02-15T13:09:36;29.03;;;13.30;;
9240;SDS011;53485;49.326;9.738;2023-02-15T13:12:11;14.87;;;11.20;;
9240;SDS011;53485;49.326;9.738;2023-02-15T13:14:44;12.70;;;11.40;;
9240;SDS011;53485;49.326;9.738;2023-02-15T13:17:11;15.67;;;12.20;;
9240;SDS011;53485;49.326;9.738;2023-02-15T13:19:42;13.10;;;11.80;;
9240;SDS011;53485;49.326;9.738;2023-02-15T13:22:10;13.17;;;11.27;;
9240;SDS011;53485;49.326;9.738;2023-02-15T13:24:36;14.13;;;12.07;;
9240;SDS011;53485;49.326;9.738;2023-02-15T13:27:02;16.10;;;12.67;;
9240;SDS011;53485;49.326;9.738;2023-02-15T13:29:31;12.83;;;11.53;;
9240;SDS011;53485;49.326;9.738;2023-02-15T13:31:57;15.27;;;13.07;;
9240;SDS011;53485;49.326;9.738;2023-02-15T13:34:25;13.87;;;12.37;;
9240;SDS011;53485;49.326;9.738;2023-02-15T13:36:57;14.90;;;11.90;;
9240;SDS011;53485;49.326;9.738;2023-02-15T13:39:29;18.27;;;12.67;;
9240;SDS011;53485;49.326;9.738;2023-02-15T13:42:00;13.73;;;12.23;;
9240;SDS011;53485;49.326;9.738;2023-02-15T13:44:42;14.83;;;11.70;;
9240;SDS011;53485;49.326;9.738;2023-02-15T13:50:06;16.63;;;11.87;;
9240;SDS011;53485;49.326;9.738;2023-02-15T13:52:48;15.10;;;12.07;;
9240;SDS011;53485;49.326;9.738;2023-02-15T13:55:24;12.50;;;10.37;;
9240;SDS011;53485;49.326;9.738;2023-02-15T13:59:01;12.87;;;11.37;;
9240;SDS011;53485;49.326;9.738;2023-02-15T14:00:48;11.50;;;10.23;;
9240;SDS011;53485;49.326;9.738;2023-02-15T14:03:27;13.43;;;11.30;;
9240;SDS011;53485;49.326;9.738;2023-02-15T14:08:44;10.80;;;9.70;;
9240;SDS011;53485;49.326;9.738;2023-02-15T14:14:11;12.60;;;10.93;;
9240;SDS011;53485;49.326;9.738;2023-02-15T14:16:39;13.93;;;10.97;;
9240;SDS011;53485;49.326;9.738;2023-02-15T14:19:39;15.93;;;11.93;;
9240;SDS011;53485;49.326;9.738;2023-02-15T14:24:28;10.70;;;9.60;;
9240;SDS011;53485;49.326;9.738;2023-02-15T14:29:48;13.53;;;11.80;;
9240;SDS011;53485;49.326;9.738;2023-02-15T14:32:20;13.47;;;12.07;;
9240;SDS011;53485;49.326;9.738;2023-02-15T14:34:47;17.37;;;11.53;;
9240;SDS011;53485;49.326;9.738;2023-02-15T14:37:16;13.23;;;11.83;;
9240;SDS011;53485;49.326;9.738;2023-02-15T14:39:44;18.43;;;12.80;;
9240;SDS011;53485;49.326;9.738;2023-02-15T14:42:18;14.37;;;12.63;;
9240;SDS011;53485;49.326;9.738;2023-02-15T14:44:49;13.50;;;11.73;;
9240;SDS011;53485;49.326;9.738;2023-02-15T14:49:49;12.97;;;11.67;;
9240;SDS011;53485;49.326;9.738;2023-02-15T14:52:16;12.77;;;11.40;;
9240;SDS011;53485;49.326;9.738;2023-02-15T14:57:25;12.83;;;11.53;;
9240;SDS011;53485;49.326;9.738;2023-02-15T14:59:54;55.90;;;14.87;;
9240;SDS011;53485;49.326;9.738;2023-02-15T15:02:25;12.70;;;11.40;;
9240;SDS011;53485;49.326;9.738;2023-02-15T15:04:55;18.17;;;11.73;;
9240;SDS011;53485;49.326;9.738;2023-02-15T15:07:43;17.07;;;11.77;;
9240;SDS011;53485;49.326;9.738;2023-02-15T15:12:58;15.37;;;11.97;;
9240;SDS011;53485;49.326;9.738;2023-02-15T15:15:38;12.53;;;11.27;;
9240;SDS011;53485;49.326;9.738;2023-02-15T15:18:42;12.93;;;11.57;;
9240;SDS011;53485;49.326;9.738;2023-02-15T15:20:53;13.03;;;11.70;;
9240;SDS011;53485;49.326;9.738;2023-02-15T15:31:30;13.73;;;12.33;;
9240;SDS011;53485;49.326;9.738;2023-02-15T15:43:08;12.80;;;11.50;;
9240;SDS011;53485;49.326;9.738;2023-02-15T15:45:33;14.57;;;11.90;;
9240;SDS011;53485;49.326;9.738;2023-02-15T15:48:02;17.00;;;13.37;;
9240;SDS011;53485;49.326;9.738;2023-02-15T15:50:35;27.73;;;13.67;;
9240;SDS011;53485;49.326;9.738;2023-02-15T15:53:02;21.13;;;13.57;;
9240;SDS011;53485;49.326;9.738;2023-02-15T15:55:30;28.33;;;15.20;;
9240;SDS011;53485;49.326;9.738;2023-02-15T15:57:56;21.50;;;14.30;;
9240;SDS011;53485;49.326;9.738;2023-02-15T16:00:25;16.03;;;12.90;;
9240;SDS011;53485;49.326;9.738;2023-02-15T16:02:53;15.27;;;13.63;;
9240;SDS011;53485;49.326;9.738;2023-02-15T16:05:20;17.63;;;13.00;;
9240;SDS011;53485;49.326;9.738;2023-02-15T16:07:48;15.60;;;12.00;;
9240;SDS011;53485;49.326;9.738;2023-02-15T16:12:47;15.37;;;12.43;;
9240;SDS011;53485;49.326;9.738;2023-02-15T16:15:17;15.63;;;11.97;;
9240;SDS011;53485;49.326;9.738;2023-02-15T16:17:44;15.73;;;10.53;;
9240;SDS011;53485;49.326;9.738;2023-02-15T16:20:15;15.30;;;11.20;;
9240;SDS011;53485;49.326;9.738;2023-02-15T16:22:41;15.20;;;11.07;;